Terminal Aerodrome Forecast
Issued by NWS

Home | Current Version | Previous Version | Text Only | Print | Product List | Glossary On
Versions: 1 2 3 4 5 6 7 8 9 10 11 12 13
000
FTUS42 TJSJ 230541
TAFJMZ
TAF
TJMZ 230541Z 2306/2406 08010KT P6SM SCT045 SCT110
     FM231630 23010KT P6SM SHRA SCT025 BKN040 OVC080
     FM232300 08005KT P6SM SCT030 BKN050 OVC120
      AMD NOT SKED=

USA.gov is the U.S. government's official web portal to all federal, state and local government web resources and services.